createdAt,value
2022-08-23T00:05:09.007Z,25.20
2022-08-23T00:10:14.855Z,25.00
2022-08-23T00:15:21.656Z,24.90
2022-08-23T00:20:25.016Z,25.10
2022-08-23T00:25:28.019Z,25.10
2022-08-23T00:30:32.934Z,25.10
2022-08-23T00:35:38.784Z,24.90
2022-08-23T00:40:42.458Z,25.00
2022-08-23T00:46:10.432Z,24.80
2022-08-23T00:51:17.108Z,24.60
2022-08-23T00:56:23.229Z,24.40
2022-08-23T01:01:28.139Z,24.30
2022-08-23T01:06:44.152Z,24.40
2022-08-23T01:11:52.261Z,24.40
2022-08-23T01:17:01.643Z,24.40
2022-08-23T01:22:12.407Z,24.10
2022-08-23T01:27:16.967Z,23.60
2022-08-23T01:32:20.016Z,23.80
2022-08-23T01:37:23.679Z,23.70
2022-08-23T01:42:28.515Z,23.70
2022-08-23T01:47:31.906Z,23.60
2022-08-23T01:52:35.842Z,23.50
2022-08-23T01:57:42.561Z,23.50
2022-08-23T02:02:48.753Z,23.40
2022-08-23T02:07:51.817Z,23.40
2022-08-23T02:12:56.952Z,23.30
2022-08-23T02:18:01.832Z,23.20
2022-08-23T02:23:05.467Z,23.00
2022-08-23T02:28:10.451Z,22.80
2022-08-23T02:33:13.838Z,22.20
2022-08-23T02:38:18.611Z,22.40
2022-08-23T02:43:23.878Z,22.60
2022-08-23T02:48:27.051Z,22.80
2022-08-23T02:53:38.704Z,22.70
2022-08-23T02:58:45.817Z,22.70
2022-08-23T03:04:00.232Z,22.80
2022-08-23T03:09:07.203Z,22.80
2022-08-23T03:14:12.050Z,22.80
2022-08-23T03:19:15.282Z,22.70
2022-08-23T03:24:18.357Z,22.70
2022-08-23T03:29:22.867Z,22.70
2022-08-23T03:34:38.575Z,22.80
2022-08-23T03:39:44.049Z,22.90
2022-08-23T03:44:48.720Z,22.90
2022-08-23T03:49:59.804Z,22.80
2022-08-23T03:55:03.070Z,22.80
2022-08-23T04:00:12.954Z,22.70
2022-08-23T04:05:20.592Z,22.60
2022-08-23T04:10:26.589Z,22.50
2022-08-23T04:15:33.249Z,22.50
2022-08-23T04:20:37.970Z,22.40
2022-08-23T04:25:43.324Z,22.30
2022-08-23T04:30:47.703Z,22.30
2022-08-23T04:35:51.212Z,22.20
2022-08-23T04:41:14.531Z,22.10
2022-08-23T04:46:20.059Z,22.00
2022-08-23T04:51:23.637Z,22.10
2022-08-23T04:56:26.793Z,22.00
2022-08-23T05:01:31.412Z,21.90
2022-08-23T05:06:34.847Z,21.70
2022-08-23T05:11:37.769Z,21.20
2022-08-23T05:16:42.119Z,21.10
2022-08-23T05:21:46.464Z,21.20
2022-08-23T05:26:50.367Z,21.20
2022-08-23T05:31:54.792Z,21.30
2022-08-23T05:36:59.991Z,21.40
2022-08-23T05:42:22.955Z,21.50
2022-08-23T05:47:28.102Z,21.60
2022-08-23T05:52:53.486Z,21.70
2022-08-23T05:57:56.675Z,21.80
2022-08-23T06:03:01.808Z,21.80
2022-08-23T06:08:05.262Z,21.90
2022-08-23T06:13:08.292Z,22.10
2022-08-23T06:18:13.581Z,22.20
2022-08-23T06:23:17.707Z,22.20
2022-08-23T06:28:25.036Z,22.30
2022-08-23T06:33:30.685Z,22.30
2022-08-23T06:38:52.257Z,22.40
2022-08-23T06:44:15.278Z,22.60
2022-08-23T06:49:34.125Z,22.60
2022-08-23T06:54:38.615Z,22.80
2022-08-23T06:59:49.945Z,22.90
2022-08-23T07:05:09.416Z,22.90
2022-08-23T07:10:31.176Z,23.20
2022-08-23T07:15:34.100Z,23.20
2022-08-23T07:20:40.004Z,23.40
2022-08-23T07:25:43.745Z,23.50
2022-08-23T07:30:50.423Z,23.50
2022-08-23T07:35:54.972Z,23.60
2022-08-23T07:40:58.681Z,23.80
2022-08-23T07:46:04.271Z,23.80
2022-08-23T07:51:12.369Z,24.10
2022-08-23T07:56:18.244Z,24.30
2022-08-23T08:01:50.699Z,24.30
2022-08-23T08:07:17.733Z,24.50
2022-08-23T08:12:20.924Z,24.60
2022-08-23T08:17:27.643Z,24.50
2022-08-23T08:23:07.255Z,24.80
2022-08-23T08:28:33.132Z,24.90
2022-08-23T08:33:36.268Z,25.10
2022-08-23T08:38:50.300Z,24.90
2022-08-23T08:44:04.723Z,25.10
2022-08-23T08:49:14.833Z,25.20
2022-08-23T08:54:24.009Z,25.50
2022-08-23T08:59:35.752Z,25.50
2022-08-23T09:04:39.005Z,25.60
2022-08-23T09:10:25.317Z,25.80
2022-08-23T09:15:49.383Z,25.90
2022-08-23T09:20:56.404Z,25.80
2022-08-23T09:26:05.094Z,26.10
2022-08-23T09:31:35.966Z,26.00
2022-08-23T09:36:40.183Z,26.10
2022-08-23T09:41:46.067Z,26.50
2022-08-23T09:46:49.066Z,26.60
2022-08-23T09:51:58.341Z,26.60
2022-08-23T09:57:05.946Z,26.80
2022-08-23T10:02:18.523Z,26.60
2022-08-23T10:07:30.113Z,26.80
2022-08-23T10:12:34.881Z,27.20
2022-08-23T10:17:46.359Z,27.10
2022-08-23T10:22:56.493Z,27.40
2022-08-23T10:28:39.473Z,27.40
2022-08-23T10:33:47.936Z,27.70
2022-08-23T10:38:57.753Z,27.90
2022-08-23T10:44:20.841Z,28.00
2022-08-23T10:49:28.478Z,28.20
2022-08-23T10:54:46.055Z,27.90
2022-08-23T10:59:53.750Z,28.00
2022-08-23T11:05:09.204Z,28.10
2022-08-23T11:10:17.382Z,28.40
2022-08-23T11:15:34.973Z,28.30
2022-08-23T11:27:06.774Z,28.40
2022-08-23T11:32:34.583Z,28.70
2022-08-23T11:37:59.844Z,28.40
2022-08-23T11:43:13.886Z,28.80
2022-08-23T11:48:24.670Z,28.60
2022-08-23T11:53:42.404Z,28.90
2022-08-23T11:59:08.801Z,29.00
2022-08-23T12:04:31.781Z,29.00
2022-08-23T12:09:59.076Z,29.40
2022-08-23T12:15:07.634Z,29.50
2022-08-23T12:20:16.792Z,29.60
2022-08-23T12:25:30.674Z,29.60
2022-08-23T12:30:42.438Z,29.80
2022-08-23T12:35:56.232Z,29.70
2022-08-23T12:41:00.263Z,29.70
2022-08-23T12:46:29.400Z,29.70
2022-08-23T12:51:39.979Z,29.70
2022-08-23T12:56:47.601Z,29.70
2022-08-23T13:01:50.782Z,29.90
2022-08-23T13:06:59.436Z,30.10
2022-08-23T13:12:03.359Z,30.10
2022-08-23T13:17:19.443Z,30.20
2022-08-23T13:22:26.086Z,30.30
2022-08-23T13:27:36.557Z,30.00
2022-08-23T13:32:44.393Z,30.30
2022-08-23T13:37:48.847Z,30.30
2022-08-23T13:42:56.895Z,30.20
2022-08-23T13:48:03.062Z,30.50
2022-08-23T13:53:16.717Z,30.70
2022-08-23T13:58:28.306Z,30.80
2022-08-23T14:03:32.449Z,30.80
2022-08-23T14:08:42.695Z,30.60
2022-08-23T14:13:48.625Z,30.40
2022-08-23T14:24:18.511Z,30.80
2022-08-23T14:29:22.765Z,30.80
2022-08-23T14:34:26.880Z,31.00
2022-08-23T14:39:32.660Z,30.90
2022-08-23T14:44:38.583Z,31.00
2022-08-23T14:49:41.644Z,31.00
2022-08-23T14:54:47.400Z,30.80
2022-08-23T14:59:50.353Z,30.70
2022-08-23T15:04:53.715Z,30.80
2022-08-23T15:09:58.056Z,30.70
2022-08-23T15:15:02.928Z,30.80
2022-08-23T15:20:07.166Z,30.80
2022-08-23T15:25:11.741Z,30.80
2022-08-23T15:30:22.017Z,30.70
2022-08-23T15:35:25.994Z,30.80
2022-08-23T15:40:30.627Z,31.00
2022-08-23T15:45:43.713Z,31.20
2022-08-23T15:50:48.069Z,31.10
2022-08-23T15:55:53.191Z,31.30
2022-08-23T16:01:03.317Z,31.40
2022-08-23T16:06:21.682Z,31.70
2022-08-23T16:11:28.133Z,31.50
2022-08-23T16:16:35.000Z,31.30
2022-08-23T16:21:38.428Z,31.30
2022-08-23T16:26:46.343Z,31.40
2022-08-23T16:31:49.835Z,31.50
2022-08-23T16:36:57.533Z,31.70
2022-08-23T16:42:21.326Z,31.60
2022-08-23T16:47:24.428Z,31.60
2022-08-23T16:52:34.615Z,31.50
2022-08-23T16:57:40.428Z,31.50
2022-08-23T17:02:44.777Z,31.60
2022-08-23T17:07:49.246Z,31.50
2022-08-23T17:12:56.212Z,31.30
2022-08-23T17:18:00.791Z,31.40
2022-08-23T17:23:05.616Z,31.50
2022-08-23T17:28:10.331Z,31.60
2022-08-23T17:33:13.291Z,31.60
2022-08-23T17:38:16.352Z,31.80
2022-08-23T17:43:20.658Z,31.80
2022-08-23T17:48:29.888Z,31.80
2022-08-23T17:53:45.155Z,32.00
2022-08-23T17:58:49.997Z,32.00
2022-08-23T18:03:53.003Z,31.90
2022-08-23T18:09:06.391Z,31.80
2022-08-23T18:14:11.201Z,31.60
2022-08-23T18:19:14.355Z,31.30
2022-08-23T18:24:17.605Z,31.20
2022-08-23T18:29:22.097Z,30.80
2022-08-23T18:34:25.133Z,30.50
2022-08-23T18:39:32.188Z,30.50
2022-08-23T18:44:36.940Z,30.20
2022-08-23T18:49:40.156Z,30.10
2022-08-23T18:54:43.192Z,29.90
2022-08-23T18:59:47.467Z,29.80
2022-08-23T19:04:50.487Z,29.40
2022-08-23T19:09:53.460Z,29.20
2022-08-23T19:15:00.870Z,29.20
2022-08-23T19:20:05.047Z,29.00
2022-08-23T19:25:08.932Z,28.90
2022-08-23T19:30:17.661Z,28.80
2022-08-23T19:35:21.118Z,28.70
2022-08-23T19:40:24.325Z,28.40
2022-08-23T19:45:29.522Z,28.20
2022-08-23T19:50:56.906Z,28.10
2022-08-23T19:56:02.848Z,27.30
2022-08-23T20:01:25.708Z,27.40
2022-08-23T20:06:29.198Z,27.40
2022-08-23T20:11:32.499Z,27.10
2022-08-23T20:16:37.805Z,27.10
2022-08-23T20:21:44.194Z,27.10
2022-08-23T20:26:50.930Z,27.00
2022-08-23T20:31:57.344Z,27.20
2022-08-23T20:37:00.353Z,27.10
2022-08-23T20:42:04.457Z,27.00
2022-08-23T20:47:12.825Z,26.80
2022-08-23T20:52:16.652Z,26.80
2022-08-23T20:57:19.668Z,26.80
2022-08-23T21:02:23.987Z,26.80
2022-08-23T21:07:27.962Z,26.90
2022-08-23T21:12:31.093Z,26.90
2022-08-23T21:17:35.673Z,26.60
2022-08-23T21:22:38.669Z,26.30
2022-08-23T21:27:41.633Z,26.40
2022-08-23T21:32:45.972Z,26.50
2022-08-23T21:37:49.014Z,26.50
2022-08-23T21:42:52.008Z,26.30
2022-08-23T21:47:56.519Z,25.90
2022-08-23T21:52:59.458Z,25.90
2022-08-23T21:58:02.367Z,26.10
2022-08-23T22:03:07.045Z,26.20
2022-08-23T22:08:14.320Z,25.90
2022-08-23T22:13:17.627Z,26.00
2022-08-23T22:18:21.919Z,25.90
2022-08-23T22:23:26.370Z,25.70
2022-08-23T22:28:32.333Z,25.80
2022-08-23T22:33:37.045Z,25.80
2022-08-23T22:38:40.098Z,25.80
2022-08-23T22:43:43.072Z,25.80
2022-08-23T22:48:48.331Z,25.80
2022-08-23T22:53:53.494Z,25.80
2022-08-23T22:58:57.216Z,25.60
2022-08-23T23:04:03.055Z,25.70
2022-08-23T23:09:08.381Z,25.50
2022-08-23T23:14:12.252Z,25.70
2022-08-23T23:19:34.169Z,25.70
2022-08-23T23:24:40.640Z,25.60
2022-08-23T23:29:43.585Z,25.50
2022-08-23T23:34:48.075Z,25.50
2022-08-23T23:39:51.056Z,24.90
2022-08-23T23:44:53.988Z,25.20
2022-08-23T23:49:58.682Z,25.00
2022-08-23T23:55:03.500Z,25.10
